sensor_id;sensor_type;location;lat;lon;timestamp;P1;durP1;ratioP1;P2;durP2;ratioP2
22191;SDS011;11261;52.456;10.850;2022-08-04T00:00:38;4.63;;;3.05;;
22191;SDS011;11261;52.456;10.850;2022-08-04T00:03:12;6.40;;;2.67;;
22191;SDS011;11261;52.456;10.850;2022-08-04T00:05:53;3.47;;;2.90;;
22191;SDS011;11261;52.456;10.850;2022-08-04T00:08:33;3.42;;;2.97;;
22191;SDS011;11261;52.456;10.850;2022-08-04T00:11:08;3.03;;;2.67;;
22191;SDS011;11261;52.456;10.850;2022-08-04T00:13:41;2.95;;;2.65;;
22191;SDS011;11261;52.456;10.850;2022-08-04T00:16:28;3.17;;;2.47;;
22191;SDS011;11261;52.456;10.850;2022-08-04T00:19:03;3.53;;;3.05;;
22191;SDS011;11261;52.456;10.850;2022-08-04T00:21:38;4.18;;;2.70;;
22191;SDS011;11261;52.456;10.850;2022-08-04T00:24:08;3.45;;;2.75;;
22191;SDS011;11261;52.456;10.850;2022-08-04T00:26:38;4.15;;;2.97;;
22191;SDS011;11261;52.456;10.850;2022-08-04T00:29:07;3.63;;;2.67;;
22191;SDS011;11261;52.456;10.850;2022-08-04T00:31:37;3.38;;;2.60;;
22191;SDS011;11261;52.456;10.850;2022-08-04T00:34:23;3.33;;;2.47;;
22191;SDS011;11261;52.456;10.850;2022-08-04T00:36:53;3.20;;;2.78;;
22191;SDS011;11261;52.456;10.850;2022-08-04T00:39:23;3.10;;;2.47;;
22191;SDS011;11261;52.456;10.850;2022-08-04T00:41:54;2.50;;;2.28;;
22191;SDS011;11261;52.456;10.850;2022-08-04T00:44:36;3.53;;;2.80;;
22191;SDS011;11261;52.456;10.850;2022-08-04T00:47:17;3.17;;;2.88;;
22191;SDS011;11261;52.456;10.850;2022-08-04T00:50:04;6.15;;;3.10;;
22191;SDS011;11261;52.456;10.850;2022-08-04T00:52:40;2.97;;;2.67;;
22191;SDS011;11261;52.456;10.850;2022-08-04T00:55:22;3.30;;;2.63;;
22191;SDS011;11261;52.456;10.850;2022-08-04T01:00:53;3.10;;;2.80;;
22191;SDS011;11261;52.456;10.850;2022-08-04T01:03:32;3.95;;;3.00;;
22191;SDS011;11261;52.456;10.850;2022-08-04T01:06:20;3.60;;;2.72;;
22191;SDS011;11261;52.456;10.850;2022-08-04T01:09:01;4.38;;;2.90;;
22191;SDS011;11261;52.456;10.850;2022-08-04T01:11:55;4.05;;;3.05;;
22191;SDS011;11261;52.456;10.850;2022-08-04T01:14:54;4.88;;;2.80;;
22191;SDS011;11261;52.456;10.850;2022-08-04T01:17:32;3.72;;;3.20;;
22191;SDS011;11261;52.456;10.850;2022-08-04T01:20:10;3.42;;;2.90;;
22191;SDS011;11261;52.456;10.850;2022-08-04T01:29:07;3.05;;;2.78;;
22191;SDS011;11261;52.456;10.850;2022-08-04T01:31:44;3.20;;;2.83;;
22191;SDS011;11261;52.456;10.850;2022-08-04T01:34:28;2.90;;;2.60;;
22191;SDS011;11261;52.456;10.850;2022-08-04T01:36:58;2.78;;;2.47;;
22191;SDS011;11261;52.456;10.850;2022-08-04T01:39:33;6.25;;;2.60;;
22191;SDS011;11261;52.456;10.850;2022-08-04T01:42:09;4.63;;;2.67;;
22191;SDS011;11261;52.456;10.850;2022-08-04T01:44:58;2.97;;;2.70;;
22191;SDS011;11261;52.456;10.850;2022-08-04T01:47:29;3.70;;;2.92;;
22191;SDS011;11261;52.456;10.850;2022-08-04T01:50:04;3.67;;;3.22;;
22191;SDS011;11261;52.456;10.850;2022-08-04T01:52:34;3.88;;;3.13;;
22191;SDS011;11261;52.456;10.850;2022-08-04T01:55:04;4.65;;;3.53;;
22191;SDS011;11261;52.456;10.850;2022-08-04T01:57:36;3.80;;;3.17;;
22191;SDS011;11261;52.456;10.850;2022-08-04T02:00:11;6.88;;;3.05;;
22191;SDS011;11261;52.456;10.850;2022-08-04T02:02:42;3.60;;;3.28;;
22191;SDS011;11261;52.456;10.850;2022-08-04T02:05:11;3.50;;;3.20;;
22191;SDS011;11261;52.456;10.850;2022-08-04T02:07:56;3.50;;;3.15;;
22191;SDS011;11261;52.456;10.850;2022-08-04T02:10:35;3.95;;;2.90;;
22191;SDS011;11261;52.456;10.850;2022-08-04T02:13:20;3.53;;;3.00;;
22191;SDS011;11261;52.456;10.850;2022-08-04T02:15:58;4.07;;;3.20;;
22191;SDS011;11261;52.456;10.850;2022-08-04T02:18:31;3.58;;;3.08;;
22191;SDS011;11261;52.456;10.850;2022-08-04T02:21:15;3.42;;;3.13;;
22191;SDS011;11261;52.456;10.850;2022-08-04T02:23:45;4.15;;;2.85;;
22191;SDS011;11261;52.456;10.850;2022-08-04T02:26:20;3.40;;;3.10;;
22191;SDS011;11261;52.456;10.850;2022-08-04T02:28:50;3.42;;;3.13;;
22191;SDS011;11261;52.456;10.850;2022-08-04T02:31:29;3.25;;;2.95;;
22191;SDS011;11261;52.456;10.850;2022-08-04T02:34:00;3.33;;;3.03;;
22191;SDS011;11261;52.456;10.850;2022-08-04T02:36:34;3.92;;;3.42;;
22191;SDS011;11261;52.456;10.850;2022-08-04T02:39:05;4.60;;;3.17;;
22191;SDS011;11261;52.456;10.850;2022-08-04T02:41:35;3.63;;;3.10;;
22191;SDS011;11261;52.456;10.850;2022-08-04T02:44:06;3.47;;;3.15;;
22191;SDS011;11261;52.456;10.850;2022-08-04T02:46:37;4.15;;;2.90;;
22191;SDS011;11261;52.456;10.850;2022-08-04T02:49:06;3.15;;;2.67;;
22191;SDS011;11261;52.456;10.850;2022-08-04T02:51:39;6.28;;;3.80;;
22191;SDS011;11261;52.456;10.850;2022-08-04T02:54:08;3.15;;;2.85;;
22191;SDS011;11261;52.456;10.850;2022-08-04T02:56:37;3.38;;;3.08;;
22191;SDS011;11261;52.456;10.850;2022-08-04T02:59:08;3.75;;;2.90;;
22191;SDS011;11261;52.456;10.850;2022-08-04T03:01:39;3.63;;;2.97;;
22191;SDS011;11261;52.456;10.850;2022-08-04T03:04:31;3.90;;;3.30;;
22191;SDS011;11261;52.456;10.850;2022-08-04T03:07:19;3.85;;;3.45;;
22191;SDS011;11261;52.456;10.850;2022-08-04T03:10:05;2.85;;;2.17;;
22191;SDS011;11261;52.456;10.850;2022-08-04T03:13:02;2.53;;;2.10;;
22191;SDS011;11261;52.456;10.850;2022-08-04T03:15:57;3.10;;;2.50;;
22191;SDS011;11261;52.456;10.850;2022-08-04T03:18:42;2.92;;;2.63;;
22191;SDS011;11261;52.456;10.850;2022-08-04T03:30:56;3.72;;;2.70;;
22191;SDS011;11261;52.456;10.850;2022-08-04T03:33:50;3.83;;;2.92;;
22191;SDS011;11261;52.456;10.850;2022-08-04T03:36:47;2.50;;;2.30;;
22191;SDS011;11261;52.456;10.850;2022-08-04T03:43:00;3.80;;;2.60;;
22191;SDS011;11261;52.456;10.850;2022-08-04T03:52:40;3.75;;;2.78;;
22191;SDS011;11261;52.456;10.850;2022-08-04T03:55:42;3.67;;;2.92;;
22191;SDS011;11261;52.456;10.850;2022-08-04T04:04:36;4.40;;;2.67;;
22191;SDS011;11261;52.456;10.850;2022-08-04T04:07:33;3.00;;;2.70;;
22191;SDS011;11261;52.456;10.850;2022-08-04T04:10:38;3.10;;;2.70;;
22191;SDS011;11261;52.456;10.850;2022-08-04T04:13:30;3.95;;;2.80;;
22191;SDS011;11261;52.456;10.850;2022-08-04T04:16:17;3.22;;;2.92;;
22191;SDS011;11261;52.456;10.850;2022-08-04T04:19:16;2.60;;;2.40;;
22191;SDS011;11261;52.456;10.850;2022-08-04T04:22:08;3.30;;;2.83;;
22191;SDS011;11261;52.456;10.850;2022-08-04T04:24:56;2.45;;;2.22;;
22191;SDS011;11261;52.456;10.850;2022-08-04T04:27:33;2.83;;;2.55;;
22191;SDS011;11261;52.456;10.850;2022-08-04T04:30:11;2.63;;;2.40;;
22191;SDS011;11261;52.456;10.850;2022-08-04T04:32:51;3.25;;;2.42;;
22191;SDS011;11261;52.456;10.850;2022-08-04T04:35:40;2.80;;;2.42;;
22191;SDS011;11261;52.456;10.850;2022-08-04T04:38:26;3.05;;;2.50;;
22191;SDS011;11261;52.456;10.850;2022-08-04T04:41:14;2.50;;;2.30;;
22191;SDS011;11261;52.456;10.850;2022-08-04T04:44:08;3.28;;;2.60;;
22191;SDS011;11261;52.456;10.850;2022-08-04T04:46:47;3.05;;;2.53;;
22191;SDS011;11261;52.456;10.850;2022-08-04T04:49:24;2.35;;;2.15;;
22191;SDS011;11261;52.456;10.850;2022-08-04T04:54:50;2.83;;;2.38;;
22191;SDS011;11261;52.456;10.850;2022-08-04T04:57:26;4.70;;;2.38;;
22191;SDS011;11261;52.456;10.850;2022-08-04T05:00:20;3.13;;;2.60;;
22191;SDS011;11261;52.456;10.850;2022-08-04T05:06:09;3.22;;;2.58;;
22191;SDS011;11261;52.456;10.850;2022-08-04T05:09:08;3.60;;;2.58;;
22191;SDS011;11261;52.456;10.850;2022-08-04T05:11:51;2.70;;;2.47;;
22191;SDS011;11261;52.456;10.850;2022-08-04T05:14:33;3.47;;;2.55;;
22191;SDS011;11261;52.456;10.850;2022-08-04T05:17:11;2.58;;;2.33;;
22191;SDS011;11261;52.456;10.850;2022-08-04T05:19:48;2.95;;;2.60;;
22191;SDS011;11261;52.456;10.850;2022-08-04T05:22:23;3.45;;;2.67;;
22191;SDS011;11261;52.456;10.850;2022-08-04T05:24:59;2.90;;;2.60;;
22191;SDS011;11261;52.456;10.850;2022-08-04T05:27:34;4.65;;;3.00;;
22191;SDS011;11261;52.456;10.850;2022-08-04T05:30:07;3.03;;;2.75;;
22191;SDS011;11261;52.456;10.850;2022-08-04T05:32:44;3.22;;;2.92;;
22191;SDS011;11261;52.456;10.850;2022-08-04T05:35:28;4.90;;;3.80;;
22191;SDS011;11261;52.456;10.850;2022-08-04T05:38:19;3.90;;;3.13;;
22191;SDS011;11261;52.456;10.850;2022-08-04T05:40:50;4.28;;;3.20;;
22191;SDS011;11261;52.456;10.850;2022-08-04T05:43:21;3.20;;;2.90;;
22191;SDS011;11261;52.456;10.850;2022-08-04T05:45:51;3.60;;;3.17;;
22191;SDS011;11261;52.456;10.850;2022-08-04T05:48:20;3.30;;;3.00;;
22191;SDS011;11261;52.456;10.850;2022-08-04T05:50:50;3.38;;;3.08;;
22191;SDS011;11261;52.456;10.850;2022-08-04T05:53:25;3.97;;;2.70;;
22191;SDS011;11261;52.456;10.850;2022-08-04T05:55:54;3.55;;;2.80;;
22191;SDS011;11261;52.456;10.850;2022-08-04T05:58:25;3.20;;;2.90;;
22191;SDS011;11261;52.456;10.850;2022-08-04T06:00:58;3.00;;;2.63;;
22191;SDS011;11261;52.456;10.850;2022-08-04T06:03:28;3.10;;;2.80;;
22191;SDS011;11261;52.456;10.850;2022-08-04T06:05:58;3.35;;;3.05;;
22191;SDS011;11261;52.456;10.850;2022-08-04T06:08:28;2.47;;;2.28;;
22191;SDS011;11261;52.456;10.850;2022-08-04T06:10:58;6.10;;;2.78;;
22191;SDS011;11261;52.456;10.850;2022-08-04T06:13:32;3.83;;;2.63;;
22191;SDS011;11261;52.456;10.850;2022-08-04T06:16:16;3.33;;;2.50;;
22191;SDS011;11261;52.456;10.850;2022-08-04T06:18:56;4.88;;;2.60;;
22191;SDS011;11261;52.456;10.850;2022-08-04T06:21:47;2.67;;;2.47;;
22191;SDS011;11261;52.456;10.850;2022-08-04T06:24:18;2.45;;;2.25;;
22191;SDS011;11261;52.456;10.850;2022-08-04T06:26:48;2.88;;;2.45;;
22191;SDS011;11261;52.456;10.850;2022-08-04T06:29:18;3.55;;;2.33;;
22191;SDS011;11261;52.456;10.850;2022-08-04T06:31:53;3.85;;;2.58;;
22191;SDS011;11261;52.456;10.850;2022-08-04T06:34:48;3.70;;;2.38;;
22191;SDS011;11261;52.456;10.850;2022-08-04T06:37:18;4.20;;;3.10;;
22191;SDS011;11261;52.456;10.850;2022-08-04T06:40:08;2.65;;;2.45;;
22191;SDS011;11261;52.456;10.850;2022-08-04T06:42:58;2.85;;;2.38;;
22191;SDS011;11261;52.456;10.850;2022-08-04T06:45:27;3.83;;;2.80;;
22191;SDS011;11261;52.456;10.850;2022-08-04T06:47:58;4.05;;;2.50;;
22191;SDS011;11261;52.456;10.850;2022-08-04T06:50:27;3.30;;;2.15;;
22191;SDS011;11261;52.456;10.850;2022-08-04T06:53:16;4.18;;;2.40;;
22191;SDS011;11261;52.456;10.850;2022-08-04T06:55:46;2.10;;;1.90;;
22191;SDS011;11261;52.456;10.850;2022-08-04T06:58:15;3.22;;;2.08;;
22191;SDS011;11261;52.456;10.850;2022-08-04T07:00:44;2.65;;;2.00;;
22191;SDS011;11261;52.456;10.850;2022-08-04T07:03:15;4.93;;;2.17;;
22191;SDS011;11261;52.456;10.850;2022-08-04T07:05:47;3.13;;;2.30;;
22191;SDS011;11261;52.456;10.850;2022-08-04T07:08:18;5.53;;;1.98;;
22191;SDS011;11261;52.456;10.850;2022-08-04T07:10:47;2.22;;;2.03;;
22191;SDS011;11261;52.456;10.850;2022-08-04T07:13:15;6.88;;;1.98;;
22191;SDS011;11261;52.456;10.850;2022-08-04T07:15:46;2.40;;;2.17;;
22191;SDS011;11261;52.456;10.850;2022-08-04T07:18:16;4.40;;;1.88;;
22191;SDS011;11261;52.456;10.850;2022-08-04T07:20:45;5.70;;;2.30;;
22191;SDS011;11261;52.456;10.850;2022-08-04T07:23:15;2.83;;;1.90;;
22191;SDS011;11261;52.456;10.850;2022-08-04T07:25:49;2.10;;;1.90;;
22191;SDS011;11261;52.456;10.850;2022-08-04T07:28:38;2.40;;;2.00;;
22191;SDS011;11261;52.456;10.850;2022-08-04T07:31:08;3.53;;;1.70;;
22191;SDS011;11261;52.456;10.850;2022-08-04T07:33:59;3.47;;;2.03;;
22191;SDS011;11261;52.456;10.850;2022-08-04T07:36:46;5.53;;;1.90;;
22191;SDS011;11261;52.456;10.850;2022-08-04T07:39:18;5.65;;;2.10;;
22191;SDS011;11261;52.456;10.850;2022-08-04T07:41:54;4.07;;;1.88;;
22191;SDS011;11261;52.456;10.850;2022-08-04T07:44:23;3.20;;;1.80;;
22191;SDS011;11261;52.456;10.850;2022-08-04T07:46:52;2.70;;;1.70;;
22191;SDS011;11261;52.456;10.850;2022-08-04T07:49:21;3.53;;;1.70;;
22191;SDS011;11261;52.456;10.850;2022-08-04T07:52:12;2.45;;;2.10;;
22191;SDS011;11261;52.456;10.850;2022-08-04T07:54:41;2.78;;;1.80;;
22191;SDS011;11261;52.456;10.850;2022-08-04T07:57:10;3.60;;;2.03;;
22191;SDS011;11261;52.456;10.850;2022-08-04T07:59:44;2.17;;;1.77;;
22191;SDS011;11261;52.456;10.850;2022-08-04T08:02:15;2.92;;;1.55;;
22191;SDS011;11261;52.456;10.850;2022-08-04T08:04:48;5.07;;;1.95;;
22191;SDS011;11261;52.456;10.850;2022-08-04T08:07:17;3.22;;;1.80;;
22191;SDS011;11261;52.456;10.850;2022-08-04T08:09:47;4.35;;;2.00;;
22191;SDS011;11261;52.456;10.850;2022-08-04T08:12:15;2.22;;;1.67;;
22191;SDS011;11261;52.456;10.850;2022-08-04T08:15:04;4.88;;;1.85;;
22191;SDS011;11261;52.456;10.850;2022-08-04T08:17:35;4.70;;;1.77;;
22191;SDS011;11261;52.456;10.850;2022-08-04T08:20:25;1.98;;;1.73;;
22191;SDS011;11261;52.456;10.850;2022-08-04T08:22:59;3.33;;;1.63;;
22191;SDS011;11261;52.456;10.850;2022-08-04T08:25:28;2.45;;;1.15;;
22191;SDS011;11261;52.456;10.850;2022-08-04T08:27:58;3.33;;;1.42;;
22191;SDS011;11261;52.456;10.850;2022-08-04T08:30:28;2.75;;;1.50;;
22191;SDS011;11261;52.456;10.850;2022-08-04T08:33:02;1.52;;;1.15;;
22191;SDS011;11261;52.456;10.850;2022-08-04T08:35:37;1.58;;;1.48;;
22191;SDS011;11261;52.456;10.850;2022-08-04T08:38:26;4.65;;;1.30;;
22191;SDS011;11261;52.456;10.850;2022-08-04T08:44:27;1.70;;;1.60;;
22191;SDS011;11261;52.456;10.850;2022-08-04T08:47:19;1.55;;;1.45;;
22191;SDS011;11261;52.456;10.850;2022-08-04T08:50:27;3.72;;;1.48;;
22191;SDS011;11261;52.456;10.850;2022-08-04T08:53:22;4.43;;;1.27;;
22191;SDS011;11261;52.456;10.850;2022-08-04T08:56:01;2.67;;;1.40;;
22191;SDS011;11261;52.456;10.850;2022-08-04T08:58:48;3.40;;;1.40;;
22191;SDS011;11261;52.456;10.850;2022-08-04T09:01:45;1.33;;;1.23;;
22191;SDS011;11261;52.456;10.850;2022-08-04T09:04:31;5.35;;;1.23;;
22191;SDS011;11261;52.456;10.850;2022-08-04T09:07:19;2.88;;;1.50;;
22191;SDS011;11261;52.456;10.850;2022-08-04T09:10:01;1.85;;;1.55;;
22191;SDS011;11261;52.456;10.850;2022-08-04T09:12:38;1.27;;;1.17;;
22191;SDS011;11261;52.456;10.850;2022-08-04T09:15:13;1.85;;;1.50;;
22191;SDS011;11261;52.456;10.850;2022-08-04T09:17:44;3.60;;;1.50;;
22191;SDS011;11261;52.456;10.850;2022-08-04T09:20:21;1.40;;;1.30;;
22191;SDS011;11261;52.456;10.850;2022-08-04T09:23:03;2.30;;;1.20;;
22191;SDS011;11261;52.456;10.850;2022-08-04T09:25:38;1.30;;;1.20;;
22191;SDS011;11261;52.456;10.850;2022-08-04T09:28:20;1.17;;;1.08;;
22191;SDS011;11261;52.456;10.850;2022-08-04T09:31:11;2.53;;;1.40;;
22191;SDS011;11261;52.456;10.850;2022-08-04T09:33:46;1.52;;;1.30;;
22191;SDS011;11261;52.456;10.850;2022-08-04T09:36:19;3.45;;;1.60;;
22191;SDS011;11261;52.456;10.850;2022-08-04T09:39:05;1.95;;;1.30;;
22191;SDS011;11261;52.456;10.850;2022-08-04T09:41:39;2.22;;;1.40;;
22191;SDS011;11261;52.456;10.850;2022-08-04T09:44:20;1.45;;;1.20;;
22191;SDS011;11261;52.456;10.850;2022-08-04T09:47:16;2.80;;;1.42;;
22191;SDS011;11261;52.456;10.850;2022-08-04T09:49:51;2.55;;;1.30;;
22191;SDS011;11261;52.456;10.850;2022-08-04T09:52:26;2.10;;;1.30;;
22191;SDS011;11261;52.456;10.850;2022-08-04T09:55:07;2.55;;;1.30;;
22191;SDS011;11261;52.456;10.850;2022-08-04T09:57:44;1.27;;;1.17;;
22191;SDS011;11261;52.456;10.850;2022-08-04T10:00:20;2.35;;;1.38;;
22191;SDS011;11261;52.456;10.850;2022-08-04T10:03:06;3.10;;;1.20;;
22191;SDS011;11261;52.456;10.850;2022-08-04T10:05:48;1.55;;;1.20;;
22191;SDS011;11261;52.456;10.850;2022-08-04T10:08:37;2.35;;;1.42;;
22191;SDS011;11261;52.456;10.850;2022-08-04T10:11:34;1.23;;;1.13;;
22191;SDS011;11261;52.456;10.850;2022-08-04T10:14:27;1.05;;;1.00;;
22191;SDS011;11261;52.456;10.850;2022-08-04T10:17:25;3.03;;;1.20;;
22191;SDS011;11261;52.456;10.850;2022-08-04T10:20:10;1.85;;;1.33;;
22191;SDS011;11261;52.456;10.850;2022-08-04T10:23:09;1.30;;;1.20;;
22191;SDS011;11261;52.456;10.850;2022-08-04T10:25:44;1.30;;;1.10;;
22191;SDS011;11261;52.456;10.850;2022-08-04T10:28:36;3.13;;;1.40;;
22191;SDS011;11261;52.456;10.850;2022-08-04T10:31:12;1.83;;;1.17;;
22191;SDS011;11261;52.456;10.850;2022-08-04T10:33:48;1.10;;;1.00;;
22191;SDS011;11261;52.456;10.850;2022-08-04T10:36:22;1.02;;;1.00;;
22191;SDS011;11261;52.456;10.850;2022-08-04T10:38:56;1.50;;;1.38;;
22191;SDS011;11261;52.456;10.850;2022-08-04T10:41:31;1.42;;;1.33;;
22191;SDS011;11261;52.456;10.850;2022-08-04T10:44:12;1.45;;;1.23;;
22191;SDS011;11261;52.456;10.850;2022-08-04T10:46:50;1.48;;;1.20;;
22191;SDS011;11261;52.456;10.850;2022-08-04T10:49:22;1.40;;;1.23;;
22191;SDS011;11261;52.456;10.850;2022-08-04T10:51:58;2.13;;;1.30;;
22191;SDS011;11261;52.456;10.850;2022-08-04T10:54:33;2.90;;;1.45;;
22191;SDS011;11261;52.456;10.850;2022-08-04T10:57:10;2.05;;;1.20;;
22191;SDS011;11261;52.456;10.850;2022-08-04T10:59:44;3.35;;;1.10;;
22191;SDS011;11261;52.456;10.850;2022-08-04T11:02:26;6.50;;;1.35;;
22191;SDS011;11261;52.456;10.850;2022-08-04T11:05:04;1.48;;;1.30;;
22191;SDS011;11261;52.456;10.850;2022-08-04T11:07:40;2.22;;;1.50;;
22191;SDS011;11261;52.456;10.850;2022-08-04T11:10:10;3.88;;;1.77;;
22191;SDS011;11261;52.456;10.850;2022-08-04T11:12:40;2.08;;;1.40;;
22191;SDS011;11261;52.456;10.850;2022-08-04T11:15:14;1.77;;;1.20;;
22191;SDS011;11261;52.456;10.850;2022-08-04T11:17:49;3.17;;;2.40;;
22191;SDS011;11261;52.456;10.850;2022-08-04T11:20:22;3.20;;;1.52;;
22191;SDS011;11261;52.456;10.850;2022-08-04T11:23:02;2.63;;;1.40;;
22191;SDS011;11261;52.456;10.850;2022-08-04T11:25:35;3.67;;;1.38;;
22191;SDS011;11261;52.456;10.850;2022-08-04T11:28:19;1.98;;;1.30;;
22191;SDS011;11261;52.456;10.850;2022-08-04T11:31:02;1.65;;;1.40;;
22191;SDS011;11261;52.456;10.850;2022-08-04T11:33:34;2.28;;;1.40;;
22191;SDS011;11261;52.456;10.850;2022-08-04T11:36:09;1.60;;;1.42;;
22191;SDS011;11261;52.456;10.850;2022-08-04T11:38:45;2.03;;;1.35;;
22191;SDS011;11261;52.456;10.850;2022-08-04T11:41:18;2.67;;;1.50;;
22191;SDS011;11261;52.456;10.850;2022-08-04T11:43:53;1.85;;;1.55;;
22191;SDS011;11261;52.456;10.850;2022-08-04T11:46:31;1.45;;;1.35;;
22191;SDS011;11261;52.456;10.850;2022-08-04T11:49:06;1.50;;;1.33;;
22191;SDS011;11261;52.456;10.850;2022-08-04T11:51:37;1.73;;;1.55;;
22191;SDS011;11261;52.456;10.850;2022-08-04T11:54:07;1.77;;;1.40;;
22191;SDS011;11261;52.456;10.850;2022-08-04T11:56:38;3.47;;;1.55;;
22191;SDS011;11261;52.456;10.850;2022-08-04T11:59:06;1.50;;;1.40;;
22191;SDS011;11261;52.456;10.850;2022-08-04T12:01:41;2.67;;;1.60;;
22191;SDS011;11261;52.456;10.850;2022-08-04T12:04:23;3.10;;;1.70;;
22191;SDS011;11261;52.456;10.850;2022-08-04T12:07:01;1.70;;;1.35;;
22191;SDS011;11261;52.456;10.850;2022-08-04T12:09:57;1.63;;;1.38;;
22191;SDS011;11261;52.456;10.850;2022-08-04T12:12:33;1.40;;;1.30;;
22191;SDS011;11261;52.456;10.850;2022-08-04T12:15:11;1.58;;;1.27;;
22191;SDS011;11261;52.456;10.850;2022-08-04T12:17:51;3.72;;;1.63;;
22191;SDS011;11261;52.456;10.850;2022-08-04T12:20:31;1.60;;;1.50;;
22191;SDS011;11261;52.456;10.850;2022-08-04T12:23:10;2.45;;;1.70;;
22191;SDS011;11261;52.456;10.850;2022-08-04T12:25:47;4.47;;;1.58;;
22191;SDS011;11261;52.456;10.850;2022-08-04T12:28:21;2.88;;;1.50;;
22191;SDS011;11261;52.456;10.850;2022-08-04T12:31:24;2.78;;;1.52;;
22191;SDS011;11261;52.456;10.850;2022-08-04T12:33:57;1.50;;;1.40;;
22191;SDS011;11261;52.456;10.850;2022-08-04T12:36:34;3.08;;;1.55;;
22191;SDS011;11261;52.456;10.850;2022-08-04T12:39:08;3.88;;;1.42;;
22191;SDS011;11261;52.456;10.850;2022-08-04T12:41:39;1.70;;;1.38;;
22191;SDS011;11261;52.456;10.850;2022-08-04T12:44:13;1.50;;;1.40;;
22191;SDS011;11261;52.456;10.850;2022-08-04T12:47:03;1.58;;;1.23;;
22191;SDS011;11261;52.456;10.850;2022-08-04T12:49:55;1.48;;;1.38;;
22191;SDS011;11261;52.456;10.850;2022-08-04T12:52:28;1.40;;;1.30;;
22191;SDS011;11261;52.456;10.850;2022-08-04T12:55:18;3.13;;;1.40;;
22191;SDS011;11261;52.456;10.850;2022-08-04T12:57:50;1.20;;;1.10;;
22191;SDS011;11261;52.456;10.850;2022-08-04T13:00:23;1.35;;;1.25;;
22191;SDS011;11261;52.456;10.850;2022-08-04T13:03:03;3.38;;;1.52;;
22191;SDS011;11261;52.456;10.850;2022-08-04T13:05:37;1.70;;;1.60;;
22191;SDS011;11261;52.456;10.850;2022-08-04T13:08:07;1.60;;;1.23;;
22191;SDS011;11261;52.456;10.850;2022-08-04T13:10:38;1.48;;;1.25;;
22191;SDS011;11261;52.456;10.850;2022-08-04T13:13:10;1.85;;;1.30;;
22191;SDS011;11261;52.456;10.850;2022-08-04T13:15:42;1.40;;;1.30;;
22191;SDS011;11261;52.456;10.850;2022-08-04T13:18:22;2.58;;;1.30;;
22191;SDS011;11261;52.456;10.850;2022-08-04T13:20:57;1.63;;;1.30;;
22191;SDS011;11261;52.456;10.850;2022-08-04T13:23:47;1.33;;;1.23;;
22191;SDS011;11261;52.456;10.850;2022-08-04T13:26:36;2.38;;;1.40;;
22191;SDS011;11261;52.456;10.850;2022-08-04T13:29:21;2.25;;;1.17;;
22191;SDS011;11261;52.456;10.850;2022-08-04T13:32:14;2.30;;;1.40;;
22191;SDS011;11261;52.456;10.850;2022-08-04T13:34:45;1.85;;;1.27;;
22191;SDS011;11261;52.456;10.850;2022-08-04T13:37:20;1.70;;;1.23;;
22191;SDS011;11261;52.456;10.850;2022-08-04T13:39:53;1.40;;;1.30;;
22191;SDS011;11261;52.456;10.850;2022-08-04T13:42:24;2.25;;;1.30;;
22191;SDS011;11261;52.456;10.850;2022-08-04T13:44:54;2.55;;;1.10;;
22191;SDS011;11261;52.456;10.850;2022-08-04T13:47:25;1.40;;;1.30;;
22191;SDS011;11261;52.456;10.850;2022-08-04T13:50:05;2.40;;;1.23;;
22191;SDS011;11261;52.456;10.850;2022-08-04T13:52:43;1.58;;;1.23;;
22191;SDS011;11261;52.456;10.850;2022-08-04T13:55:19;1.42;;;1.10;;
22191;SDS011;11261;52.456;10.850;2022-08-04T13:57:53;1.48;;;1.38;;
22191;SDS011;11261;52.456;10.850;2022-08-04T14:00:25;1.40;;;1.30;;
22191;SDS011;11261;52.456;10.850;2022-08-04T14:03:04;1.20;;;1.10;;
22191;SDS011;11261;52.456;10.850;2022-08-04T14:08:53;1.48;;;1.38;;
22191;SDS011;11261;52.456;10.850;2022-08-04T14:11:29;1.45;;;1.35;;
22191;SDS011;11261;52.456;10.850;2022-08-04T14:14:22;1.25;;;1.15;;
22191;SDS011;11261;52.456;10.850;2022-08-04T14:16:56;2.47;;;1.40;;
22191;SDS011;11261;52.456;10.850;2022-08-04T14:19:26;2.20;;;1.40;;
22191;SDS011;11261;52.456;10.850;2022-08-04T14:22:01;1.45;;;1.35;;
22191;SDS011;11261;52.456;10.850;2022-08-04T14:24:31;1.80;;;1.45;;
22191;SDS011;11261;52.456;10.850;2022-08-04T14:26:59;2.38;;;1.40;;
22191;SDS011;11261;52.456;10.850;2022-08-04T14:29:34;1.77;;;1.25;;
22191;SDS011;11261;52.456;10.850;2022-08-04T14:32:05;2.33;;;1.40;;
22191;SDS011;11261;52.456;10.850;2022-08-04T14:34:40;1.77;;;1.30;;
22191;SDS011;11261;52.456;10.850;2022-08-04T14:37:11;3.00;;;1.23;;
22191;SDS011;11261;52.456;10.850;2022-08-04T14:39:47;2.10;;;1.30;;
22191;SDS011;11261;52.456;10.850;2022-08-04T14:42:40;2.78;;;1.52;;
22191;SDS011;11261;52.456;10.850;2022-08-04T14:45:09;2.90;;;1.40;;
22191;SDS011;11261;52.456;10.850;2022-08-04T14:47:38;3.33;;;1.20;;
22191;SDS011;11261;52.456;10.850;2022-08-04T14:50:18;1.52;;;1.42;;
22191;SDS011;11261;52.456;10.850;2022-08-04T14:52:47;2.42;;;1.38;;
22191;SDS011;11261;52.456;10.850;2022-08-04T14:55:17;1.52;;;1.42;;
22191;SDS011;11261;52.456;10.850;2022-08-04T14:57:47;2.05;;;1.45;;
22191;SDS011;11261;52.456;10.850;2022-08-04T15:00:36;1.63;;;1.20;;
22191;SDS011;11261;52.456;10.850;2022-08-04T15:03:05;1.65;;;1.52;;
22191;SDS011;11261;52.456;10.850;2022-08-04T15:05:34;1.80;;;1.40;;
22191;SDS011;11261;52.456;10.850;2022-08-04T15:08:23;2.15;;;1.40;;
22191;SDS011;11261;52.456;10.850;2022-08-04T15:10:58;5.80;;;1.75;;
22191;SDS011;11261;52.456;10.850;2022-08-04T15:13:28;2.90;;;1.40;;
22191;SDS011;11261;52.456;10.850;2022-08-04T15:15:57;3.85;;;1.35;;
22191;SDS011;11261;52.456;10.850;2022-08-04T15:18:33;1.15;;;1.10;;
22191;SDS011;11261;52.456;10.850;2022-08-04T15:21:04;1.83;;;1.02;;
22191;SDS011;11261;52.456;10.850;2022-08-04T15:23:33;1.30;;;1.00;;
22191;SDS011;11261;52.456;10.850;2022-08-04T15:26:06;1.40;;;1.20;;
22191;SDS011;11261;52.456;10.850;2022-08-04T15:28:39;2.35;;;1.40;;
22191;SDS011;11261;52.456;10.850;2022-08-04T15:31:11;4.43;;;1.30;;
22191;SDS011;11261;52.456;10.850;2022-08-04T15:34:01;2.20;;;1.40;;
22191;SDS011;11261;52.456;10.850;2022-08-04T15:36:31;1.65;;;1.30;;
22191;SDS011;11261;52.456;10.850;2022-08-04T15:39:27;2.08;;;1.48;;
22191;SDS011;11261;52.456;10.850;2022-08-04T15:42:14;2.50;;;1.30;;
22191;SDS011;11261;52.456;10.850;2022-08-04T15:45:02;5.20;;;1.20;;
22191;SDS011;11261;52.456;10.850;2022-08-04T15:50:59;2.13;;;1.48;;
22191;SDS011;11261;52.456;10.850;2022-08-04T15:53:54;2.60;;;1.42;;
22191;SDS011;11261;52.456;10.850;2022-08-04T15:56:57;2.05;;;1.13;;
22191;SDS011;11261;52.456;10.850;2022-08-04T16:02:40;1.27;;;1.15;;
22191;SDS011;11261;52.456;10.850;2022-08-04T16:08:00;2.65;;;1.73;;
22191;SDS011;11261;52.456;10.850;2022-08-04T16:10:37;3.00;;;1.50;;
22191;SDS011;11261;52.456;10.850;2022-08-04T16:13:07;1.67;;;1.40;;
22191;SDS011;11261;52.456;10.850;2022-08-04T16:15:41;1.52;;;1.30;;
22191;SDS011;11261;52.456;10.850;2022-08-04T16:18:12;7.45;;;1.60;;
22191;SDS011;11261;52.456;10.850;2022-08-04T16:20:53;4.63;;;1.58;;
22191;SDS011;11261;52.456;10.850;2022-08-04T16:26:41;3.85;;;1.30;;
22191;SDS011;11261;52.456;10.850;2022-08-04T16:29:28;4.40;;;1.67;;
22191;SDS011;11261;52.456;10.850;2022-08-04T16:32:11;2.10;;;1.60;;
22191;SDS011;11261;52.456;10.850;2022-08-04T16:34:45;8.70;;;1.80;;
22191;SDS011;11261;52.456;10.850;2022-08-04T16:37:22;3.42;;;1.90;;